createdAt,value
2022-10-17T00:00:48.240Z,7.93
2022-10-17T00:03:15.094Z,7.60
2022-10-17T00:05:44.265Z,7.38
2022-10-17T00:08:12.326Z,14.45
2022-10-17T00:10:40.035Z,10.35
2022-10-17T00:13:07.663Z,10.52
2022-10-17T00:15:34.542Z,8.85
2022-10-17T00:18:01.413Z,9.73
2022-10-17T00:20:28.107Z,7.05
2022-10-17T00:22:54.557Z,9.90
2022-10-17T00:25:22.540Z,11.48
2022-10-17T00:27:48.986Z,9.60
2022-10-17T00:30:16.256Z,18.27
2022-10-17T00:32:42.825Z,10.50
2022-10-17T00:35:10.698Z,7.65
2022-10-17T00:37:37.260Z,8.23
2022-10-17T00:40:05.205Z,10.25
2022-10-17T00:42:31.705Z,8.15
2022-10-17T00:45:20.853Z,8.38
2022-10-17T00:48:00.477Z,8.75
2022-10-17T00:50:28.339Z,7.00
2022-10-17T00:53:01.259Z,10.27
2022-10-17T00:55:32.122Z,11.48
2022-10-17T00:58:02.615Z,8.70
2022-10-17T01:00:29.114Z,9.75
2022-10-17T01:02:55.958Z,8.82
2022-10-17T01:05:22.563Z,9.30
2022-10-17T01:07:52.576Z,9.38
2022-10-17T01:10:20.641Z,8.95
2022-10-17T01:13:02.357Z,9.93
2022-10-17T01:15:44.214Z,9.57
2022-10-17T01:18:29.207Z,10.23
2022-10-17T01:21:11.207Z,8.43
2022-10-17T01:24:21.181Z,7.88
2022-10-17T01:26:56.833Z,8.02
2022-10-17T01:29:47.649Z,9.30
2022-10-17T01:32:19.811Z,9.10
2022-10-17T01:34:52.459Z,8.90
2022-10-17T01:37:32.683Z,8.57
2022-10-17T01:40:37.274Z,16.15
2022-10-17T01:43:13.685Z,9.93
2022-10-17T01:46:02.628Z,10.60
2022-10-17T01:48:38.746Z,13.43
2022-10-17T01:51:13.574Z,12.93
2022-10-17T01:53:47.159Z,10.82
2022-10-17T01:56:16.008Z,8.70
2022-10-17T01:58:51.496Z,8.50
2022-10-17T02:01:19.764Z,14.55
2022-10-17T02:03:48.631Z,11.35
2022-10-17T02:06:15.142Z,11.45
2022-10-17T02:08:47.276Z,9.52
2022-10-17T02:11:18.123Z,10.30
2022-10-17T02:14:15.757Z,10.63
2022-10-17T02:16:57.123Z,10.60
2022-10-17T02:19:29.506Z,15.55
2022-10-17T02:22:16.643Z,12.50
2022-10-17T02:24:50.009Z,14.80
2022-10-17T02:27:33.531Z,10.77
2022-10-17T02:30:14.201Z,10.77
2022-10-17T02:32:55.654Z,9.27
2022-10-17T02:35:25.476Z,11.15
2022-10-17T02:37:53.368Z,9.25
2022-10-17T02:40:24.271Z,12.70
2022-10-17T02:42:54.676Z,10.73
2022-10-17T02:45:25.262Z,13.23
2022-10-17T02:48:04.126Z,12.40
2022-10-17T02:50:44.559Z,9.05
2022-10-17T02:53:28.538Z,11.85
2022-10-17T02:55:59.860Z,9.50
2022-10-17T02:58:32.078Z,11.10
2022-10-17T03:00:59.349Z,12.02
2022-10-17T03:03:30.439Z,9.45
2022-10-17T03:06:01.934Z,10.57
2022-10-17T03:08:28.532Z,11.85
2022-10-17T03:10:56.217Z,13.30
2022-10-17T03:13:23.229Z,13.40
2022-10-17T03:15:50.175Z,10.35
2022-10-17T03:18:17.067Z,9.98
2022-10-17T03:20:44.535Z,11.68
2022-10-17T03:23:11.249Z,15.07
2022-10-17T03:25:39.142Z,9.48
2022-10-17T03:28:06.161Z,11.55
2022-10-17T03:30:33.608Z,11.60
2022-10-17T03:33:00.954Z,9.65
2022-10-17T03:35:28.782Z,10.73
2022-10-17T03:37:56.475Z,13.18
2022-10-17T03:40:25.374Z,10.75
2022-10-17T03:42:52.714Z,10.00
2022-10-17T03:45:23.403Z,10.82
2022-10-17T03:47:51.206Z,12.75
2022-10-17T03:50:17.782Z,10.63
2022-10-17T03:52:48.469Z,10.15
2022-10-17T03:55:17.102Z,11.27
2022-10-17T03:57:45.584Z,11.52
2022-10-17T04:00:13.617Z,10.10
2022-10-17T04:02:49.746Z,8.80
2022-10-17T04:05:18.722Z,15.63
2022-10-17T04:07:45.790Z,11.48
2022-10-17T04:10:13.698Z,11.15
2022-10-17T04:12:40.275Z,12.23
2022-10-17T04:15:07.360Z,11.65
2022-10-17T04:17:38.052Z,12.32
2022-10-17T04:20:05.824Z,12.65
2022-10-17T04:22:32.494Z,10.75
2022-10-17T04:25:02.307Z,12.18
2022-10-17T04:27:38.862Z,10.30
2022-10-17T04:30:06.790Z,10.30
2022-10-17T04:32:38.508Z,14.77
2022-10-17T04:35:15.890Z,14.13
2022-10-17T04:37:47.280Z,12.32
2022-10-17T04:40:18.156Z,10.20
2022-10-17T04:42:45.318Z,13.30
2022-10-17T04:45:19.116Z,11.48
2022-10-17T04:47:47.420Z,10.23
2022-10-17T04:50:14.015Z,10.43
2022-10-17T04:52:40.772Z,16.45
2022-10-17T04:55:08.868Z,9.55
2022-10-17T04:57:35.854Z,10.77
2022-10-17T05:00:15.266Z,15.10
2022-10-17T05:03:03.772Z,9.88
2022-10-17T05:05:30.860Z,15.05
2022-10-17T05:07:57.956Z,8.85
2022-10-17T05:10:29.882Z,10.15
2022-10-17T05:12:57.784Z,10.55
2022-10-17T05:15:29.123Z,10.23
2022-10-17T05:17:56.970Z,9.45
2022-10-17T05:20:25.577Z,8.73
2022-10-17T05:22:52.379Z,8.93
2022-10-17T05:25:22.053Z,10.20
2022-10-17T05:27:49.478Z,11.95
2022-10-17T05:30:17.745Z,9.48
2022-10-17T05:32:44.597Z,10.88
2022-10-17T05:35:15.541Z,10.15
2022-10-17T05:37:42.402Z,8.57
2022-10-17T05:40:10.200Z,7.85
2022-10-17T05:42:37.065Z,7.50
2022-10-17T05:45:04.139Z,11.82
2022-10-17T05:47:31.153Z,9.80
2022-10-17T05:49:58.534Z,11.32
2022-10-17T05:52:31.643Z,11.95
2022-10-17T05:55:12.668Z,10.80
2022-10-17T05:57:39.801Z,9.48
2022-10-17T06:00:11.110Z,9.80
2022-10-17T06:02:48.916Z,12.07
2022-10-17T06:05:19.383Z,8.63
2022-10-17T06:07:46.761Z,9.52
2022-10-17T06:10:16.221Z,8.48
2022-10-17T06:12:45.717Z,10.93
2022-10-17T06:15:15.365Z,9.60
2022-10-17T06:17:45.459Z,10.07
2022-10-17T06:20:11.946Z,9.68
2022-10-17T06:22:38.505Z,9.27
2022-10-17T06:25:12.348Z,9.63
2022-10-17T06:27:38.855Z,9.95
2022-10-17T06:30:05.887Z,11.65
2022-10-17T06:32:32.615Z,10.25
2022-10-17T06:34:59.442Z,9.27
2022-10-17T06:37:35.403Z,10.45
2022-10-17T06:40:07.060Z,10.45
2022-10-17T06:42:34.523Z,10.90
2022-10-17T06:45:13.638Z,12.70
2022-10-17T06:47:58.500Z,12.32
2022-10-17T06:50:41.086Z,10.38
2022-10-17T06:53:13.653Z,16.27
2022-10-17T06:56:04.694Z,9.52
2022-10-17T06:58:44.293Z,8.90
2022-10-17T07:01:23.468Z,11.23
2022-10-17T07:03:58.081Z,9.75
2022-10-17T07:06:24.767Z,10.00
2022-10-17T07:08:52.454Z,9.32
2022-10-17T07:11:21.032Z,9.18
2022-10-17T07:13:54.367Z,9.57
2022-10-17T07:16:22.205Z,10.75
2022-10-17T07:18:55.897Z,9.75
2022-10-17T07:21:22.675Z,7.20
2022-10-17T07:23:49.168Z,12.55
2022-10-17T07:26:17.109Z,10.90
2022-10-17T07:28:45.307Z,10.15
2022-10-17T07:31:45.590Z,11.20
2022-10-17T07:34:16.729Z,9.63
2022-10-17T07:36:44.546Z,9.45
2022-10-17T07:39:13.377Z,11.05
2022-10-17T07:41:40.375Z,11.27
2022-10-17T07:44:12.093Z,9.00
2022-10-17T07:46:45.719Z,9.80
2022-10-17T07:49:12.318Z,9.77
2022-10-17T07:51:40.632Z,11.60
2022-10-17T07:54:08.342Z,13.20
2022-10-17T07:56:34.821Z,13.45
2022-10-17T07:59:03.819Z,10.30
2022-10-17T08:01:33.174Z,14.80
2022-10-17T08:04:04.208Z,9.70
2022-10-17T08:06:30.738Z,7.97
2022-10-17T08:08:58.454Z,11.75
2022-10-17T08:11:25.385Z,11.98
2022-10-17T08:14:10.622Z,9.25
2022-10-17T08:16:37.246Z,8.55
2022-10-17T08:19:04.696Z,11.27
2022-10-17T08:21:31.334Z,7.95
2022-10-17T08:23:59.326Z,9.27
2022-10-17T08:26:25.763Z,8.02
2022-10-17T08:28:52.328Z,9.23
2022-10-17T08:31:20.338Z,7.90
2022-10-17T08:33:48.267Z,11.77
2022-10-17T08:36:17.705Z,8.30
2022-10-17T08:38:46.964Z,8.18
2022-10-17T08:41:31.321Z,10.15
2022-10-17T08:44:49.445Z,7.32
2022-10-17T08:47:22.219Z,9.05
2022-10-17T08:49:55.717Z,8.88
2022-10-17T08:52:38.027Z,8.90
2022-10-17T08:57:48.190Z,6.80
2022-10-17T09:00:20.758Z,14.27
2022-10-17T09:03:09.218Z,10.23
2022-10-17T09:05:46.183Z,12.77
2022-10-17T09:08:22.424Z,9.27
2022-10-17T09:11:07.749Z,10.40
2022-10-17T09:14:16.505Z,8.60
2022-10-17T09:16:54.758Z,8.00
2022-10-17T09:19:41.441Z,7.53
2022-10-17T09:22:17.302Z,7.88
2022-10-17T09:24:53.066Z,5.82
2022-10-17T09:27:34.709Z,7.78
2022-10-17T09:30:44.080Z,8.15
2022-10-17T09:33:23.193Z,8.13
2022-10-17T09:36:00.704Z,6.47
2022-10-17T09:38:38.138Z,7.57
2022-10-17T09:41:39.086Z,8.93
2022-10-17T09:44:24.531Z,14.25
2022-10-17T09:47:03.066Z,12.07
2022-10-17T09:49:34.348Z,9.07
2022-10-17T09:52:03.132Z,10.70
2022-10-17T09:54:42.334Z,10.15
2022-10-17T09:57:11.118Z,8.32
2022-10-17T09:59:47.594Z,10.00
2022-10-17T10:02:23.485Z,12.30
2022-10-17T10:05:05.946Z,13.25
2022-10-17T10:07:36.187Z,10.25
2022-10-17T10:10:06.330Z,10.68
2022-10-17T10:12:35.758Z,11.38
2022-10-17T10:15:32.679Z,9.38
2022-10-17T10:17:59.382Z,11.10
2022-10-17T10:20:37.375Z,9.43
2022-10-17T10:23:13.306Z,8.30
2022-10-17T10:25:53.865Z,10.48
2022-10-17T10:28:23.440Z,8.63
2022-10-17T10:30:52.225Z,9.55
2022-10-17T10:33:21.882Z,17.92
2022-10-17T10:35:57.654Z,10.70
2022-10-17T10:38:24.474Z,12.15
2022-10-17T10:41:11.710Z,13.20
2022-10-17T10:43:42.165Z,8.35
2022-10-17T10:46:21.406Z,11.65
2022-10-17T10:48:50.673Z,10.05
2022-10-17T10:51:22.794Z,8.80
2022-10-17T10:54:23.101Z,10.50
2022-10-17T10:56:53.570Z,11.57
2022-10-17T10:59:28.723Z,10.27
2022-10-17T11:02:03.087Z,9.02
2022-10-17T11:04:52.446Z,6.90
2022-10-17T11:07:32.466Z,9.60
2022-10-17T11:10:12.453Z,10.85
2022-10-17T11:12:46.394Z,11.00
2022-10-17T11:15:31.183Z,9.85
2022-10-17T11:18:05.216Z,10.10
2022-10-17T11:20:47.586Z,8.80
2022-10-17T11:23:21.447Z,8.93
2022-10-17T11:25:54.488Z,13.00
2022-10-17T11:28:24.669Z,10.40
2022-10-17T11:30:57.262Z,10.85
2022-10-17T11:33:46.630Z,11.48
2022-10-17T11:36:16.953Z,11.65
2022-10-17T11:39:15.099Z,10.35
2022-10-17T11:41:43.097Z,9.20
2022-10-17T11:44:26.848Z,8.90
2022-10-17T11:47:04.499Z,10.07
2022-10-17T11:49:40.233Z,12.30
2022-10-17T11:52:55.273Z,13.05
2022-10-17T11:55:28.125Z,9.82
2022-10-17T11:58:00.298Z,9.95
2022-10-17T12:00:51.635Z,13.73
2022-10-17T12:03:27.103Z,9.13
2022-10-17T12:06:05.645Z,10.43
2022-10-17T12:08:41.477Z,11.50
2022-10-17T12:11:27.393Z,9.85
2022-10-17T12:13:57.127Z,10.77
2022-10-17T12:16:23.858Z,15.00
2022-10-17T12:19:02.306Z,10.38
2022-10-17T12:21:49.001Z,11.82
2022-10-17T12:25:00.088Z,11.80
2022-10-17T12:27:37.153Z,11.65
2022-10-17T12:30:13.415Z,11.80
2022-10-17T12:33:05.661Z,10.25
2022-10-17T12:35:35.847Z,10.55
2022-10-17T12:38:23.214Z,10.25
2022-10-17T12:40:51.557Z,12.80
2022-10-17T12:43:17.966Z,12.75
2022-10-17T12:45:49.513Z,12.60
2022-10-17T12:48:34.064Z,10.77
2022-10-17T12:51:34.745Z,12.10
2022-10-17T12:54:16.728Z,11.52
2022-10-17T12:56:48.997Z,11.82
2022-10-17T12:59:24.117Z,11.40
2022-10-17T13:01:55.427Z,11.75
2022-10-17T13:04:26.863Z,12.35
2022-10-17T13:06:56.557Z,12.30
2022-10-17T13:09:38.654Z,16.85
2022-10-17T13:12:11.401Z,14.75
2022-10-17T13:14:40.822Z,11.20
2022-10-17T13:17:20.585Z,14.75
2022-10-17T13:19:47.092Z,9.60
2022-10-17T13:22:26.339Z,11.82
2022-10-17T13:25:07.485Z,11.68
2022-10-17T13:27:35.865Z,12.45
2022-10-17T13:30:31.891Z,10.27
2022-10-17T13:33:00.444Z,12.15
2022-10-17T13:35:58.961Z,15.43
2022-10-17T13:38:32.086Z,12.57
2022-10-17T13:41:10.821Z,14.60
2022-10-17T13:43:43.786Z,14.80
2022-10-17T13:46:36.686Z,13.77
2022-10-17T13:49:25.738Z,14.35
2022-10-17T13:51:56.258Z,16.13
2022-10-17T13:54:37.274Z,14.07
2022-10-17T13:57:05.586Z,18.13
2022-10-17T13:59:40.893Z,15.18
2022-10-17T14:05:04.079Z,20.63
2022-10-17T14:07:58.284Z,16.52
2022-10-17T14:10:36.906Z,15.77
2022-10-17T14:13:06.223Z,13.00
2022-10-17T14:15:34.986Z,17.15
2022-10-17T14:18:07.710Z,13.27
2022-10-17T14:23:34.516Z,15.25
2022-10-17T14:26:10.873Z,13.90
2022-10-17T14:28:38.138Z,13.00
2022-10-17T14:31:15.214Z,14.30
2022-10-17T14:33:50.588Z,16.15
2022-10-17T14:36:41.982Z,15.88
2022-10-17T14:39:22.219Z,14.27
2022-10-17T14:41:50.511Z,12.73
2022-10-17T14:44:33.457Z,14.02
2022-10-17T14:47:30.773Z,13.02
2022-10-17T14:50:22.777Z,16.10
2022-10-17T14:53:11.146Z,14.75
2022-10-17T14:55:54.206Z,13.25
2022-10-17T14:58:30.716Z,16.60
2022-10-17T15:00:58.890Z,12.30
2022-10-17T15:03:25.835Z,16.45
2022-10-17T15:05:54.818Z,11.85
2022-10-17T15:08:23.764Z,12.48
2022-10-17T15:10:51.382Z,13.43
2022-10-17T15:13:39.939Z,12.88
2022-10-17T15:16:34.701Z,14.05
2022-10-17T15:19:01.731Z,13.82
2022-10-17T15:21:47.176Z,12.45
2022-10-17T15:26:42.918Z,10.02
2022-10-17T15:29:16.595Z,14.13
2022-10-17T15:31:43.235Z,12.77
2022-10-17T15:34:34.873Z,10.70
2022-10-17T15:37:01.688Z,11.65
2022-10-17T15:39:28.327Z,10.75
2022-10-17T15:41:54.826Z,11.95
2022-10-17T15:44:23.172Z,13.77
2022-10-17T15:46:56.201Z,15.23
2022-10-17T15:49:22.894Z,11.35
2022-10-17T15:51:55.104Z,13.65
2022-10-17T15:54:26.874Z,14.65
2022-10-17T15:56:55.780Z,13.95
2022-10-17T15:59:30.307Z,14.52
2022-10-17T16:01:56.866Z,13.65
2022-10-17T16:04:30.750Z,13.18
2022-10-17T16:06:57.349Z,14.32
2022-10-17T16:09:23.827Z,16.02
2022-10-17T16:11:50.515Z,14.80
2022-10-17T16:14:21.413Z,16.42
2022-10-17T16:16:48.014Z,18.13
2022-10-17T16:19:16.237Z,15.38
2022-10-17T16:21:42.979Z,15.40
2022-10-17T16:24:12.272Z,14.73
2022-10-17T16:26:40.036Z,14.75
2022-10-17T16:29:06.850Z,15.30
2022-10-17T16:31:35.996Z,15.90
2022-10-17T16:34:06.502Z,16.15
2022-10-17T16:36:33.727Z,15.55
2022-10-17T16:39:00.619Z,16.73
2022-10-17T16:41:36.935Z,15.65
2022-10-17T16:44:13.159Z,14.80
2022-10-17T16:46:39.694Z,13.27
2022-10-17T16:49:06.577Z,13.80
2022-10-17T16:51:36.314Z,13.65
2022-10-17T16:54:05.847Z,11.32
2022-10-17T16:56:32.904Z,11.30
2022-10-17T16:59:00.695Z,15.18
2022-10-17T17:01:29.249Z,14.77
2022-10-17T17:03:58.362Z,12.57
2022-10-17T17:06:27.499Z,16.90
2022-10-17T17:08:55.146Z,12.80
2022-10-17T17:11:24.470Z,14.65
2022-10-17T17:13:59.947Z,18.55
2022-10-17T17:16:28.034Z,15.85
2022-10-17T17:19:00.591Z,12.27
2022-10-17T17:21:27.882Z,12.68
2022-10-17T17:24:00.827Z,12.60
2022-10-17T17:26:31.279Z,14.25
2022-10-17T17:28:59.982Z,14.98
2022-10-17T17:31:30.689Z,12.35
2022-10-17T17:34:02.567Z,14.32
2022-10-17T17:36:31.793Z,14.95
2022-10-17T17:39:01.423Z,15.63
2022-10-17T17:41:28.788Z,14.35
2022-10-17T17:44:04.630Z,12.80
2022-10-17T17:46:32.810Z,14.65
2022-10-17T17:48:59.944Z,14.27
2022-10-17T17:51:29.507Z,12.13
2022-10-17T17:54:00.395Z,12.82
2022-10-17T17:56:28.819Z,14.07
2022-10-17T17:59:00.293Z,17.02
2022-10-17T18:01:30.134Z,17.40
2022-10-17T18:04:00.707Z,16.73
2022-10-17T18:06:27.883Z,16.52
2022-10-17T18:08:58.455Z,12.80
2022-10-17T18:11:26.194Z,13.05
2022-10-17T18:14:02.754Z,14.07
2022-10-17T18:16:30.958Z,13.55
2022-10-17T18:19:02.618Z,13.10
2022-10-17T18:21:32.533Z,17.27
2022-10-17T18:24:01.201Z,14.48
2022-10-17T18:26:28.251Z,11.05
2022-10-17T18:28:54.911Z,14.65
2022-10-17T18:31:28.614Z,14.77
2022-10-17T18:34:00.171Z,14.60
2022-10-17T18:36:28.009Z,19.08
2022-10-17T18:38:55.470Z,14.90
2022-10-17T18:41:24.610Z,13.00
2022-10-17T18:44:04.889Z,16.88
2022-10-17T18:46:40.432Z,16.50
2022-10-17T18:49:12.654Z,17.70
2022-10-17T18:51:40.371Z,21.50
2022-10-17T18:54:20.322Z,16.25
2022-10-17T18:56:51.052Z,19.95
2022-10-17T18:59:18.545Z,15.68
2022-10-17T19:01:45.536Z,17.75
2022-10-17T19:04:16.342Z,14.88
2022-10-17T19:06:43.729Z,18.02
2022-10-17T19:09:14.549Z,18.00
2022-10-17T19:11:42.148Z,16.08
2022-10-17T19:14:13.586Z,17.35
2022-10-17T19:16:46.588Z,16.80
2022-10-17T19:19:19.129Z,18.60
2022-10-17T19:21:46.575Z,17.33
2022-10-17T19:24:20.635Z,17.25
2022-10-17T19:26:50.290Z,17.45
2022-10-17T19:29:18.186Z,17.67
2022-10-17T19:31:45.654Z,20.33
2022-10-17T19:34:17.708Z,18.60
2022-10-17T19:36:45.062Z,16.25
2022-10-17T19:39:17.134Z,14.57
2022-10-17T19:41:45.392Z,16.52
2022-10-17T19:44:14.418Z,19.05
2022-10-17T19:46:40.897Z,16.90
2022-10-17T19:49:07.564Z,15.93
2022-10-17T19:51:34.292Z,14.77
2022-10-17T19:54:03.083Z,14.82
2022-10-17T19:56:32.803Z,19.83
2022-10-17T19:58:59.599Z,15.68
2022-10-17T20:01:32.035Z,15.10
2022-10-17T20:04:02.086Z,13.18
2022-10-17T20:06:28.664Z,15.02
2022-10-17T20:08:55.485Z,14.63
2022-10-17T20:11:24.540Z,19.70
2022-10-17T20:13:58.295Z,17.20
2022-10-17T20:16:27.944Z,14.27
2022-10-17T20:18:56.567Z,13.23
2022-10-17T20:21:27.315Z,13.73
2022-10-17T20:23:59.292Z,13.93
2022-10-17T20:26:42.593Z,12.93
2022-10-17T20:29:14.475Z,13.68
2022-10-17T20:31:43.560Z,14.70
2022-10-17T20:34:15.909Z,14.77
2022-10-17T20:36:43.194Z,12.63
2022-10-17T20:39:12.060Z,12.80
2022-10-17T20:41:38.520Z,14.23
2022-10-17T20:44:08.998Z,11.40
2022-10-17T20:46:37.831Z,15.25
2022-10-17T20:49:07.539Z,15.38
2022-10-17T20:51:35.049Z,14.48
2022-10-17T20:54:03.491Z,13.13
2022-10-17T20:56:32.598Z,10.50
2022-10-17T20:59:01.965Z,11.73
2022-10-17T21:01:30.181Z,16.92
2022-10-17T21:04:21.451Z,15.32
2022-10-17T21:06:48.334Z,14.73
2022-10-17T21:09:15.050Z,16.23
2022-10-17T21:11:43.039Z,13.45
2022-10-17T21:14:16.667Z,12.52
2022-10-17T21:16:43.379Z,13.75
2022-10-17T21:19:11.189Z,16.63
2022-10-17T21:21:41.107Z,15.25
2022-10-17T21:24:13.615Z,13.05
2022-10-17T21:26:42.418Z,13.63
2022-10-17T21:29:10.225Z,13.60
2022-10-17T21:31:37.913Z,11.93
2022-10-17T21:34:08.123Z,11.25
2022-10-17T21:36:35.001Z,13.30
2022-10-17T21:39:01.648Z,10.82
2022-10-17T21:41:29.631Z,11.48
2022-10-17T21:44:06.516Z,8.05
2022-10-17T21:46:33.957Z,12.57
2022-10-17T21:49:00.658Z,12.85
2022-10-17T21:51:27.532Z,10.07
2022-10-17T21:54:05.762Z,13.13
2022-10-17T21:56:34.630Z,11.10
2022-10-17T21:59:01.296Z,16.70
2022-10-17T22:01:30.303Z,9.02
2022-10-17T22:04:04.989Z,10.43
2022-10-17T22:06:40.251Z,12.85
2022-10-17T22:09:22.823Z,11.00
2022-10-17T22:11:52.125Z,15.25
2022-10-17T22:14:25.936Z,11.05
2022-10-17T22:16:52.483Z,15.57
2022-10-17T22:19:22.096Z,11.70
2022-10-17T22:21:49.154Z,11.50
2022-10-17T22:26:48.457Z,11.00
2022-10-17T22:29:15.033Z,11.45
2022-10-17T22:31:41.666Z,12.00
2022-10-17T22:34:13.661Z,12.07
2022-10-17T22:36:40.366Z,10.75
2022-10-17T22:39:07.241Z,12.82
2022-10-17T22:41:33.840Z,10.85
2022-10-17T22:44:02.106Z,9.13
2022-10-17T22:46:28.683Z,10.77
2022-10-17T22:48:55.229Z,9.70
2022-10-17T22:51:21.834Z,11.65
2022-10-17T22:53:48.355Z,11.82
2022-10-17T22:56:17.459Z,11.90
2022-10-17T22:58:44.301Z,11.70
2022-10-17T23:01:15.522Z,10.10
2022-10-17T23:03:42.127Z,12.35
2022-10-17T23:06:09.706Z,11.05
2022-10-17T23:08:36.515Z,8.90
2022-10-17T23:11:03.115Z,12.40
2022-10-17T23:13:29.586Z,9.27
2022-10-17T23:15:57.889Z,10.82
2022-10-17T23:18:25.739Z,9.02
2022-10-17T23:20:53.166Z,11.32
2022-10-17T23:23:20.448Z,13.52
2022-10-17T23:25:49.421Z,13.35
2022-10-17T23:28:16.796Z,11.32
2022-10-17T23:30:43.633Z,10.93
2022-10-17T23:33:12.785Z,11.05
2022-10-17T23:35:39.608Z,11.48
2022-10-17T23:38:06.139Z,10.60
2022-10-17T23:40:32.720Z,10.07
2022-10-17T23:42:59.180Z,8.30
2022-10-17T23:45:27.693Z,11.73
2022-10-17T23:47:54.219Z,10.77
2022-10-17T23:50:20.907Z,9.75
2022-10-17T23:52:47.366Z,10.68
2022-10-17T23:55:15.597Z,9.35
2022-10-17T23:57:42.065Z,8.65
